createdAt,value
2023-01-21T00:00:04.000Z,96.81
2023-01-21T00:05:04.000Z,96.87
2023-01-21T00:10:03.000Z,96.73
2023-01-21T00:15:03.000Z,96.84
2023-01-21T00:20:03.000Z,96.58
2023-01-21T00:25:03.000Z,96.27
2023-01-21T00:30:04.000Z,96.16
2023-01-21T00:35:03.000Z,96.52
2023-01-21T01:00:25.000Z,97.29
2023-01-21T01:05:07.000Z,97.25
2023-01-21T01:10:03.000Z,97.18
2023-01-21T01:15:03.000Z,96.28
2023-01-21T01:20:03.000Z,96.25
2023-01-21T01:25:04.000Z,96.81
2023-01-21T01:30:05.000Z,96.68
2023-01-21T01:35:04.000Z,96.78
2023-01-21T01:40:04.000Z,97.39
2023-01-21T01:45:03.000Z,97.72
2023-01-21T01:50:03.000Z,98.42
2023-01-21T01:55:05.000Z,97.61
2023-01-21T02:00:03.000Z,96.91
2023-01-21T02:05:03.000Z,97.49
2023-01-21T02:10:04.000Z,96.82
2023-01-21T02:15:04.000Z,96.27
2023-01-21T02:20:04.000Z,96.89
2023-01-21T02:25:04.000Z,96.82
2023-01-21T02:30:04.000Z,96.65
2023-01-21T02:35:03.000Z,98.00
2023-01-21T02:40:05.000Z,98.21
2023-01-21T02:45:05.000Z,98.26
2023-01-21T02:50:04.000Z,98.21
2023-01-21T02:55:07.000Z,96.63
2023-01-21T03:00:12.000Z,96.37
2023-01-21T03:05:03.000Z,97.40
2023-01-21T03:10:04.000Z,96.59
2023-01-21T03:15:03.000Z,96.42
2023-01-21T03:20:06.000Z,97.10
2023-01-21T03:25:03.000Z,96.48
2023-01-21T03:30:04.000Z,96.48
2023-01-21T03:34:48.000Z,96.78
2023-01-21T03:40:03.000Z,96.51
2023-01-21T03:45:03.000Z,96.45
2023-01-21T03:50:03.000Z,96.73
2023-01-21T03:55:03.000Z,96.81
2023-01-21T04:00:05.000Z,96.70
2023-01-21T04:05:04.000Z,96.33
2023-01-21T04:10:04.000Z,97.03
2023-01-21T04:15:03.000Z,96.92
2023-01-21T04:19:48.000Z,96.16
2023-01-21T04:25:03.000Z,95.92
2023-01-21T04:30:04.000Z,95.89
2023-01-21T04:35:04.000Z,96.03
2023-01-21T04:40:03.000Z,95.92
2023-01-21T04:45:03.000Z,95.97
2023-01-21T04:50:03.000Z,95.72
2023-01-21T04:55:04.000Z,96.03
2023-01-21T05:00:04.000Z,95.97
2023-01-21T05:05:04.000Z,95.97
2023-01-21T05:10:04.000Z,96.39
2023-01-21T05:15:03.000Z,95.68
2023-01-21T05:20:04.000Z,95.18
2023-01-21T05:25:03.000Z,95.18
2023-01-21T05:30:03.000Z,95.31
2023-01-21T05:35:03.000Z,95.31
2023-01-21T05:40:03.000Z,95.20
2023-01-21T05:45:03.000Z,95.46
2023-01-21T05:50:04.000Z,95.49
2023-01-21T05:55:04.000Z,95.60
2023-01-21T06:00:03.000Z,95.60
2023-01-21T06:05:03.000Z,95.58
2023-01-21T06:10:03.000Z,95.68
2023-01-21T06:15:03.000Z,95.60
2023-01-21T06:20:03.000Z,95.56
2023-01-21T06:25:03.000Z,95.39
2023-01-21T06:30:03.000Z,95.17
2023-01-21T06:35:03.000Z,95.26
2023-01-21T06:40:03.000Z,95.46
2023-01-21T06:45:03.000Z,95.43
2023-01-21T06:50:03.000Z,95.56
2023-01-21T06:55:03.000Z,95.56
2023-01-21T07:00:04.000Z,95.68
2023-01-21T07:05:03.000Z,95.67
2023-01-21T07:10:03.000Z,95.48
2023-01-21T07:15:03.000Z,96.01
2023-01-21T07:20:03.000Z,95.60
2023-01-21T07:25:03.000Z,96.18
2023-01-21T07:30:03.000Z,95.67
2023-01-21T07:35:03.000Z,95.72
2023-01-21T07:40:04.000Z,95.81
2023-01-21T07:45:03.000Z,96.26
2023-01-21T07:50:03.000Z,95.78
2023-01-21T07:55:03.000Z,95.85
2023-01-21T08:00:03.000Z,95.96
2023-01-21T08:05:03.000Z,96.89
2023-01-21T08:10:03.000Z,96.11
2023-01-21T08:15:03.000Z,96.33
2023-01-21T08:20:03.000Z,96.14
2023-01-21T08:25:03.000Z,95.70
2023-01-21T08:30:03.000Z,96.01
2023-01-21T08:35:04.000Z,95.37
2023-01-21T08:40:04.000Z,95.72
2023-01-21T08:45:04.000Z,95.47
2023-01-21T08:50:06.000Z,95.96
2023-01-21T08:55:04.000Z,95.48
2023-01-21T09:00:04.000Z,95.91
2023-01-21T09:05:03.000Z,94.93
2023-01-21T09:10:04.000Z,94.99
2023-01-21T09:15:04.000Z,94.89
2023-01-21T09:20:04.000Z,95.53
2023-01-21T09:25:04.000Z,94.36
2023-01-21T09:30:04.000Z,93.75
2023-01-21T09:35:04.000Z,93.54
2023-01-21T09:40:03.000Z,92.73
2023-01-21T09:45:04.000Z,92.31
2023-01-21T09:50:03.000Z,93.45
2023-01-21T09:55:03.000Z,93.08
2023-01-21T10:00:03.000Z,93.31
2023-01-21T10:05:03.000Z,94.29
2023-01-21T10:10:04.000Z,93.66
2023-01-21T10:15:03.000Z,94.01
2023-01-21T10:20:03.000Z,93.52
2023-01-21T10:25:03.000Z,93.97
2023-01-21T10:30:03.000Z,92.71
2023-01-21T10:35:03.000Z,92.75
2023-01-21T10:40:03.000Z,92.56
2023-01-21T10:45:03.000Z,91.35
2023-01-21T10:50:03.000Z,91.89
2023-01-21T10:55:03.000Z,90.74
2023-01-21T11:00:04.000Z,90.24
2023-01-21T11:05:03.000Z,90.42
2023-01-21T11:10:03.000Z,90.24
2023-01-21T11:15:03.000Z,90.22
2023-01-21T11:20:03.000Z,90.93
2023-01-21T11:25:03.000Z,90.27
2023-01-21T11:30:03.000Z,89.89
2023-01-21T11:35:03.000Z,89.02
2023-01-21T11:40:03.000Z,89.11
2023-01-21T11:45:03.000Z,89.70
2023-01-21T11:50:03.000Z,87.83
2023-01-21T11:55:03.000Z,88.38
2023-01-21T12:00:03.000Z,87.46
2023-01-21T12:05:03.000Z,86.48
2023-01-21T12:10:03.000Z,88.64
2023-01-21T12:15:03.000Z,87.79
2023-01-21T12:20:03.000Z,88.21
2023-01-21T12:25:03.000Z,88.05
2023-01-21T12:30:03.000Z,87.29
2023-01-21T12:35:03.000Z,87.97
2023-01-21T12:40:03.000Z,85.87
2023-01-21T12:45:03.000Z,86.51
2023-01-21T12:50:03.000Z,87.02
2023-01-21T12:55:03.000Z,86.06
2023-01-21T13:00:06.000Z,85.96
2023-01-21T13:05:03.000Z,86.84
2023-01-21T13:10:03.000Z,85.71
2023-01-21T13:15:04.000Z,86.72
2023-01-21T13:20:04.000Z,87.38
2023-01-21T13:25:04.000Z,86.54
2023-01-21T13:30:04.000Z,86.88
2023-01-21T13:35:04.000Z,86.51
2023-01-21T13:40:04.000Z,87.15
2023-01-21T13:45:04.000Z,86.47
2023-01-21T13:50:04.000Z,87.35
2023-01-21T13:55:03.000Z,87.95
2023-01-21T14:00:04.000Z,86.83
2023-01-21T14:05:03.000Z,87.25
2023-01-21T14:10:03.000Z,89.11
2023-01-21T14:15:04.000Z,88.88
2023-01-21T14:20:03.000Z,89.21
2023-01-21T14:25:04.000Z,89.34
2023-01-21T14:29:48.000Z,89.88
2023-01-21T14:35:04.000Z,89.77
2023-01-21T14:40:04.000Z,90.21
2023-01-21T14:45:03.000Z,90.44
2023-01-21T14:50:03.000Z,90.98
2023-01-21T14:55:04.000Z,90.79
2023-01-21T15:00:05.000Z,92.01
2023-01-21T15:05:03.000Z,92.34
2023-01-21T15:10:03.000Z,92.59
2023-01-21T15:15:04.000Z,92.35
2023-01-21T15:20:03.000Z,92.92
2023-01-21T15:25:03.000Z,93.08
2023-01-21T15:30:03.000Z,92.63
2023-01-21T15:35:03.000Z,92.26
2023-01-21T15:40:05.000Z,93.29
2023-01-21T15:45:03.000Z,92.80
2023-01-21T15:50:04.000Z,92.93
2023-01-21T15:55:04.000Z,92.70
2023-01-21T16:00:04.000Z,93.28
2023-01-21T16:05:04.000Z,92.85
2023-01-21T16:10:04.000Z,92.31
2023-01-21T16:15:04.000Z,91.71
2023-01-21T16:20:04.000Z,92.14
2023-01-21T16:25:04.000Z,91.85
2023-01-21T16:30:04.000Z,92.43
2023-01-21T16:35:04.000Z,92.34
2023-01-21T16:40:03.000Z,92.31
2023-01-21T16:45:04.000Z,92.31
2023-01-21T16:50:04.000Z,92.23
2023-01-21T16:55:05.000Z,92.68
2023-01-21T17:00:04.000Z,92.40
2023-01-21T17:05:04.000Z,92.55
2023-01-21T17:10:04.000Z,93.23
2023-01-21T17:15:04.000Z,93.88
2023-01-21T17:20:04.000Z,93.53
2023-01-21T17:25:04.000Z,93.68
2023-01-21T17:30:04.000Z,94.11
2023-01-21T17:35:04.000Z,94.97
2023-01-21T17:40:04.000Z,94.22
2023-01-21T17:45:04.000Z,96.11
2023-01-21T17:50:04.000Z,95.48
2023-01-21T17:55:04.000Z,94.17
2023-01-21T18:00:04.000Z,94.02
2023-01-21T18:05:04.000Z,94.14
2023-01-21T18:10:04.000Z,94.54
2023-01-21T18:15:04.000Z,93.91
2023-01-21T18:20:04.000Z,94.40
2023-01-21T18:25:04.000Z,93.79
2023-01-21T18:30:04.000Z,94.33
2023-01-21T18:35:04.000Z,93.99
2023-01-21T18:40:04.000Z,93.94
2023-01-21T18:45:04.000Z,94.28
2023-01-21T18:50:04.000Z,93.51
2023-01-21T18:55:04.000Z,93.33
2023-01-21T19:00:05.000Z,93.62
2023-01-21T19:05:04.000Z,93.62
2023-01-21T19:10:04.000Z,94.42
2023-01-21T19:15:04.000Z,94.50
2023-01-21T19:20:04.000Z,95.79
2023-01-21T19:25:04.000Z,96.39
2023-01-21T19:30:04.000Z,96.22
2023-01-21T19:35:04.000Z,96.68
2023-01-21T19:40:04.000Z,96.68
2023-01-21T19:45:04.000Z,96.48
2023-01-21T19:50:04.000Z,96.36
2023-01-21T19:55:04.000Z,97.02
2023-01-21T20:00:04.000Z,96.96
2023-01-21T20:05:04.000Z,97.39
2023-01-21T20:10:04.000Z,97.19
2023-01-21T20:15:04.000Z,97.25
2023-01-21T20:20:04.000Z,97.07
2023-01-21T20:25:04.000Z,95.07
2023-01-21T20:30:04.000Z,96.45
2023-01-21T20:35:04.000Z,96.96
2023-01-21T20:40:04.000Z,97.27
2023-01-21T20:45:04.000Z,97.30
2023-01-21T20:50:04.000Z,97.56
2023-01-21T20:55:04.000Z,96.01
2023-01-21T21:00:05.000Z,96.01
2023-01-21T21:05:04.000Z,96.50
2023-01-21T21:10:04.000Z,96.44
2023-01-21T21:15:04.000Z,96.78
2023-01-21T21:20:04.000Z,97.36
2023-01-21T21:25:04.000Z,97.58
2023-01-21T21:30:04.000Z,99.76
2023-01-21T21:35:04.000Z,98.19
2023-01-21T21:40:04.000Z,98.67
2023-01-21T21:45:04.000Z,99.56
2023-01-21T21:50:04.000Z,98.67
2023-01-21T21:55:04.000Z,98.58
2023-01-21T22:00:04.000Z,98.64
2023-01-21T22:05:04.000Z,98.58
2023-01-21T22:10:04.000Z,98.47
2023-01-21T22:15:04.000Z,98.27
2023-01-21T22:20:04.000Z,98.07
2023-01-21T22:25:04.000Z,97.78
2023-01-21T22:30:04.000Z,97.95
2023-01-21T22:35:04.000Z,98.04
2023-01-21T22:40:04.000Z,97.52
2023-01-21T22:45:04.000Z,96.73
2023-01-21T22:50:04.000Z,96.55
2023-01-21T22:55:04.000Z,96.53
2023-01-21T22:59:49.000Z,96.58
2023-01-21T23:04:54.000Z,97.64
2023-01-21T23:09:51.000Z,97.58
2023-01-21T23:15:08.000Z,97.93
2023-01-21T23:20:07.000Z,97.93
2023-01-21T23:25:06.000Z,98.39
2023-01-21T23:30:09.000Z,98.42
2023-01-21T23:35:08.000Z,98.71
2023-01-21T23:40:06.000Z,98.93
2023-01-21T23:45:08.000Z,99.13
2023-01-21T23:50:06.000Z,98.96
2023-01-21T23:55:05.000Z,99.04
